Terminal Aerodrome Forecast
Issued by NWS Blacksburg, VA

Current Version | Previous Version | Graphics & Text | Print | Product List | Glossary On
Versions: 1 2 3 4 5 6 7 8 9 10 11 12 13 14 15
000
FTUS41 KRNK 210533
TAFBLF
TAF
KBLF 210533Z 2106/2206 20004KT P6SM FEW045 OVC110
     FM210900 25009KT 5SM SHRA BR SCT004 BKN025
     FM211500 27010KT 2SM -SHRA BR OVC007
     FM211700 28008KT P6SM SCT015 BKN050
     FM212100 29009KT P6SM SCT025 BKN250
     FM220000 28007KT P6SM OVC012=

USA.gov is the U.S. government's official web portal to all federal, state and local government web resources and services.